Time;durP1;ratioP1;P1;durP2;ratioP2;P2;SDS_P1;SDS_P2;PMS_P1;PMS_P2;Temp;Humidity;BMP_temperature;BMP_pressure;BME280_temperature;BME280_humidity;BME280_pressure;Samples;Min_cycle;Max_cycle;Signal;HPM_P1;HPM_P2
2022/08/19 00:04:37;;;;;;;13.35;7.63;;;21.30;99.90;;;;;;10251421;28;20047;-65
2022/08/19 00:09:39;;;;;;;17.17;7.70;;;21.30;99.90;;;;;;10246176;28;20085;-65
2022/08/19 00:14:41;;;;;;;11.32;6.70;;;21.40;99.90;;;;;;10248472;28;20548;-65
2022/08/19 00:19:43;;;;;;;12.57;7.10;;;21.30;99.90;;;;;;10251312;28;20051;-67
2022/08/19 00:24:45;;;;;;;12.20;7.70;;;21.40;99.90;;;;;;10248737;28;20051;-67
2022/08/19 00:29:51;;;;;;;12.15;6.90;;;21.30;99.90;;;;;;10237202;28;20173;-67
2022/08/19 00:34:53;;;;;;;14.32;8.63;;;21.30;99.90;;;;;;10248469;28;20541;-67
2022/08/19 00:39:55;;;;;;;12.35;8.13;;;21.40;99.90;;;;;;10249440;28;20062;-67
2022/08/19 00:44:57;;;;;;;11.88;7.32;;;21.30;99.90;;;;;;10237777;28;20484;-67
2022/08/19 00:49:59;;;;;;;13.73;8.07;;;21.40;99.90;;;;;;10238507;28;20051;-66
2022/08/19 00:55:03;;;;;;;13.70;7.97;;;21.40;99.90;;;;;;10250520;28;20091;-66
2022/08/19 01:00:12;;;;;;;12.02;7.07;;;21.40;99.90;;;;;;10245994;28;20054;-66
2022/08/19 01:05:19;;;;;;;11.45;6.88;;;21.40;99.90;;;;;;10241977;28;20170;-66
2022/08/19 01:10:26;;;;;;;14.68;7.03;;;21.40;99.90;;;;;;10245306;28;20484;-65
2022/08/19 01:15:34;;;;;;;11.55;6.60;;;21.40;99.90;;;;;;10243514;28;20123;-65
2022/08/19 01:20:35;;;;;;;11.57;6.90;;;21.40;99.90;;;;;;10251901;28;20492;-65
2022/08/19 01:25:50;;;;;;;12.25;7.47;;;21.40;99.90;;;;;;10248135;28;20047;-66
2022/08/19 01:30:53;;;;;;;10.25;6.45;;;21.40;99.90;;;;;;10255540;28;20067;-66
2022/08/19 01:36:04;;;;;;;8.75;6.07;;;21.40;99.90;;;;;;10259234;28;20402;-66
2022/08/19 01:41:06;;;;;;;11.18;6.45;;;21.30;99.90;;;;;;10257317;28;20054;-65
2022/08/19 01:46:12;;;;;;;13.55;6.45;;;21.40;99.90;;;;;;10244308;28;20496;-66
2022/08/19 01:51:14;;;;;;;12.10;6.88;;;21.30;99.90;;;;;;10255224;28;20070;-66
2022/08/19 01:56:17;;;;;;;8.90;6.53;;;21.30;99.90;;;;;;10254584;28;20059;-66
2022/08/19 02:01:19;;;;;;;11.27;6.50;;;21.40;99.90;;;;;;10256771;28;20055;-65
2022/08/19 02:06:21;;;;;;;9.55;5.65;;;21.30;99.90;;;;;;10250699;28;20113;-65
2022/08/19 02:11:31;;;;;;;;;;;21.30;99.90;;;;;;10259226;28;20138;-66
2022/08/19 02:16:33;;;;;;;11.32;5.53;;;21.30;99.90;;;;;;10254378;28;19922;-66
2022/08/19 02:21:35;;;;;;;11.25;5.85;;;21.20;99.90;;;;;;10254904;28;20047;-66
2022/08/19 02:26:37;;;;;;;8.65;5.72;;;21.30;99.90;;;;;;10254102;28;20090;-67
2022/08/19 02:31:39;;;;;;;9.48;5.70;;;21.20;99.90;;;;;;10249887;28;20050;-67
2022/08/19 02:36:40;;;;;;;11.25;6.50;;;21.20;99.90;;;;;;10257940;28;20457;-67
2022/08/19 02:41:43;;;;;;;10.02;6.20;;;21.10;99.90;;;;;;10248423;28;20054;-66
2022/08/19 02:46:49;;;;;;;9.90;5.60;;;21.10;99.90;;;;;;10258835;28;20044;-66
2022/08/19 02:51:54;;;;;;;9.10;5.68;;;21.10;99.90;;;;;;10259499;28;20050;-67
2022/08/19 02:56:55;;;;;;;10.00;5.25;;;21.10;99.90;;;;;;10247643;28;20390;-66
2022/08/19 03:01:57;;;;;;;9.25;6.30;;;21.10;99.90;;;;;;10254643;28;20066;-67
2022/08/19 03:06:59;;;;;;;9.50;4.95;;;21.10;99.90;;;;;;10251690;28;20058;-65
2022/08/19 03:12:11;;;;;;;8.55;5.00;;;21.00;99.90;;;;;;10249000;28;20057;-65
2022/08/19 03:17:13;;;;;;;8.48;5.63;;;21.00;99.90;;;;;;10251537;28;20062;-65
2022/08/19 03:22:15;;;;;;;9.35;5.28;;;20.90;99.90;;;;;;10266252;28;20513;-65
2022/08/19 03:27:17;;;;;;;11.32;5.63;;;20.80;99.90;;;;;;10254147;28;20047;-65
2022/08/19 03:32:19;;;;;;;11.18;5.65;;;20.70;99.90;;;;;;10248213;28;20545;-65
2022/08/19 03:37:34;;;;;;;11.52;6.20;;;20.70;99.90;;;;;;10255226;28;20047;-66
2022/08/19 03:42:37;;;;;;;12.52;5.78;;;20.70;99.90;;;;;;10259751;28;20046;-66
2022/08/19 03:47:58;;;;;;;10.88;6.00;;;20.60;99.90;;;;;;10256946;28;20051;-66
2022/08/19 03:53:00;;;;;;;10.18;6.28;;;20.60;99.90;;;;;;10255620;28;20444;-66
2022/08/19 03:58:02;;;;;;;12.38;5.95;;;20.50;99.90;;;;;;10257346;28;20058;-66
2022/08/19 04:03:04;;;;;;;10.95;5.60;;;20.50;99.90;;;;;;10269786;28;20047;-66
2022/08/19 04:08:05;;;;;;;12.70;5.60;;;20.50;99.90;;;;;;10259415;28;20058;-66
2022/08/19 04:13:15;;;;;;;7.50;5.50;;;20.40;99.90;;;;;;10252434;28;20634;-67
2022/08/19 04:18:17;;;;;;;11.32;6.13;;;20.30;99.90;;;;;;10250520;28;20047;-71
2022/08/19 04:23:18;;;;;;;10.88;5.28;;;20.30;99.90;;;;;;10247787;28;20109;-69
2022/08/19 04:28:21;;;;;;;9.98;5.85;;;20.30;99.90;;;;;;10257809;28;20063;-69
2022/08/19 04:33:24;;;;;;;10.82;6.25;;;20.20;99.90;;;;;;10249095;28;20051;-69
2022/08/19 04:38:29;;;;;;;9.05;6.10;;;20.20;99.90;;;;;;10245351;28;20165;-69
2022/08/19 04:43:31;;;;;;;7.72;5.20;;;20.10;99.90;;;;;;10246962;28;20054;-69
2022/08/19 04:48:34;;;;;;;9.07;5.20;;;20.10;99.90;;;;;;10244216;28;20055;-69
2022/08/19 04:53:43;;;;;;;8.77;5.50;;;20.20;99.90;;;;;;10242271;28;20039;-69
2022/08/19 04:58:45;;;;;;;11.00;5.28;;;20.20;99.90;;;;;;10239251;28;20102;-69
2022/08/19 05:03:47;;;;;;;10.40;5.15;;;20.20;99.90;;;;;;10249081;28;20043;-69
2022/08/19 05:08:49;;;;;;;9.80;5.32;;;20.20;99.90;;;;;;10247853;28;20070;-69
2022/08/19 05:13:52;;;;;;;7.65;4.80;;;20.30;99.90;;;;;;10247871;28;20078;-66
2022/08/19 05:24:16;;;;;;;13.35;6.55;;;20.30;99.90;;;;;;10249601;28;20066;-66
2022/08/19 05:29:21;;;;;;;8.75;4.60;;;20.40;99.90;;;;;;10239971;28;20043;-66
2022/08/19 05:34:25;;;;;;;6.88;5.28;;;20.60;99.90;;;;;;10249980;28;20055;-66
2022/08/19 05:39:30;;;;;;;7.88;5.15;;;20.60;99.90;;;;;;10257938;28;20058;-66
2022/08/19 05:44:34;;;;;;;9.60;4.95;;;20.70;99.90;;;;;;10246446;28;20443;-68
2022/08/19 05:49:37;;;;;;;7.95;4.88;;;20.90;99.90;;;;;;10249823;28;20184;-67
2022/08/19 05:54:42;;;;;;;6.00;4.38;;;20.90;99.90;;;;;;10248964;28;20114;-67
2022/08/19 05:59:46;;;;;;;7.82;4.65;;;21.00;99.90;;;;;;10242857;28;20051;-68
2022/08/19 06:04:47;;;;;;;7.55;4.40;;;21.10;99.90;;;;;;10242027;28;20062;-68
2022/08/19 06:09:49;;;;;;;9.18;4.93;;;21.20;99.90;;;;;;10244170;28;20081;-68
2022/08/19 06:15:09;;;;;;;10.57;4.60;;;21.30;99.90;;;;;;10253034;28;20047;-68
2022/08/19 06:20:14;;;;;;;7.40;4.43;;;21.40;99.90;;;;;;10260004;28;20449;-68
2022/08/19 06:25:16;;;;;;;9.02;4.97;;;21.40;99.90;;;;;;10253679;28;20062;-67
2022/08/19 06:30:18;;;;;;;5.88;4.03;;;21.40;99.90;;;;;;10235478;28;20046;-66
2022/08/19 06:35:20;;;;;;;7.47;4.22;;;21.50;99.90;;;;;;10246317;28;20050;-66
2022/08/19 06:40:22;;;;;;;6.82;4.22;;;21.50;99.90;;;;;;10238947;28;20057;-67
2022/08/19 06:45:25;;;;;;;5.78;3.97;;;21.50;99.90;;;;;;10248619;28;20038;-67
2022/08/19 06:50:40;;;;;;;7.22;3.80;;;21.70;99.90;;;;;;10252402;28;20133;-66
2022/08/19 06:55:41;;;;;;;5.65;3.60;;;21.80;99.90;;;;;;10256497;28;20055;-66
2022/08/19 07:00:43;;;;;;;5.70;3.10;;;21.80;99.90;;;;;;10260246;28;20505;-65
2022/08/19 07:05:45;;;;;;;7.22;4.00;;;22.00;99.90;;;;;;10254647;28;20490;-66
2022/08/19 07:10:47;;;;;;;7.45;3.55;;;22.10;99.90;;;;;;10250958;28;20486;-66
2022/08/19 07:15:50;;;;;;;5.20;3.42;;;22.30;99.90;;;;;;10264982;28;20062;-66
2022/08/19 07:21:03;;;;;;;4.43;2.50;;;22.50;99.90;;;;;;10242384;28;20057;-66
2022/08/19 07:26:10;;;;;;;4.63;2.85;;;22.60;99.90;;;;;;10257173;28;20062;-66
2022/08/19 07:31:18;;;;;;;14.20;3.20;;;22.70;99.90;;;;;;10249508;28;20058;-66
2022/08/19 07:36:31;;;;;;;4.13;2.40;;;22.80;99.90;;;;;;10252741;28;20054;-66
2022/08/19 07:41:36;;;;;;;4.57;2.00;;;22.90;99.90;;;;;;10246557;28;20054;-67
2022/08/19 07:46:46;;;;;;;4.22;2.15;;;23.10;99.90;;;;;;10243784;28;20491;-67
2022/08/19 07:51:55;;;;;;;4.15;2.55;;;23.20;99.90;;;;;;10248596;28;20280;-67
2022/08/19 07:56:58;;;;;;;3.30;2.67;;;23.30;99.90;;;;;;10258706;28;20051;-66
2022/08/19 08:02:00;;;;;;;2.38;1.60;;;23.40;99.90;;;;;;10259455;28;20061;-66
2022/08/19 08:12:28;;;;;;;4.57;1.40;;;23.80;99.90;;;;;;10265109;28;20056;-69
2022/08/19 08:17:36;;;;;;;2.53;1.40;;;24.00;99.90;;;;;;10288034;28;20046;-69
2022/08/19 08:28:12;;;;;;;4.00;1.83;;;24.20;99.90;;;;;;10272986;28;20175;-69
2022/08/19 08:33:21;;;;;;;3.00;1.88;;;24.30;99.90;;;;;;10290300;28;20042;-69
2022/08/19 08:38:34;;;;;;;6.43;2.67;;;24.40;99.90;;;;;;10292339;28;20137;-69
2022/08/19 08:43:46;;;;;;;3.95;1.75;;;24.60;99.90;;;;;;10266366;28;20170;-69
2022/08/19 08:49:00;;;;;;;2.97;1.45;;;24.90;99.90;;;;;;10286533;28;20056;-69
2022/08/19 08:54:06;;;;;;;1.55;1.17;;;25.00;99.90;;;;;;10280914;28;20477;-68
2022/08/19 08:59:20;;;;;;;3.30;1.65;;;25.40;99.90;;;;;;10285653;28;20061;-69
2022/08/19 09:04:22;;;;;;;4.72;1.25;;;25.70;99.90;;;;;;10267651;28;20105;-67
2022/08/19 09:09:34;;;;;;;5.38;1.35;;;25.60;99.90;;;;;;10288638;28;20047;-68
2022/08/19 09:15:00;;;;;;;3.08;1.10;;;25.70;99.90;;;;;;10288402;28;20494;-69
2022/08/19 09:20:17;;;;;;;5.73;1.90;;;25.90;99.90;;;;;;10294941;28;20061;-69
2022/08/19 09:25:22;;;;;;;4.57;2.63;;;25.80;99.90;;;;;;10277008;28;20469;-68
2022/08/19 09:30:30;;;;;;;7.75;2.20;;;25.20;99.90;;;;;;10295341;28;20046;-68
2022/08/19 09:35:32;;;;;;;5.40;2.53;;;25.20;99.90;;;;;;10284253;28;20054;-68
2022/08/19 09:40:53;;;;;;;4.88;2.63;;;25.30;99.90;;;;;;10290598;28;20051;-68
2022/08/19 09:45:56;;;;;;;2.85;1.90;;;25.60;99.90;;;;;;10282155;28;20065;-69
2022/08/19 09:51:07;;;;;;;3.95;2.33;;;25.80;99.90;;;;;;10284415;28;20362;-69
2022/08/19 09:56:13;;;;;;;5.30;3.95;;;26.10;99.90;;;;;;10300639;28;20046;-69
2022/08/19 10:01:27;;;;;;;2.67;2.17;;;26.00;99.90;;;;;;10292264;28;20062;-69
2022/08/19 10:06:32;;;;;;;4.25;2.67;;;25.90;99.90;;;;;;10269820;28;20042;-66
2022/08/19 10:11:47;;;;;;;6.13;2.33;;;25.90;99.90;;;;;;10285323;28;20042;-68
2022/08/19 10:16:56;;;;;;;3.67;2.67;;;26.40;99.90;;;;;;10265535;28;20336;-68
2022/08/19 10:22:04;;;;;;;3.53;2.70;;;26.90;99.90;;;;;;10256058;28;20050;-73
2022/08/19 10:27:12;;;;;;;5.95;3.90;;;27.20;99.90;;;;;;10258437;28;20058;-68
2022/08/19 10:32:16;;;;;;;4.60;3.85;;;27.10;99.90;;;;;;10253696;28;20046;-68
2022/08/19 10:37:18;;;;;;;4.50;3.45;;;26.80;99.90;;;;;;10249180;28;20195;-68
2022/08/19 10:42:31;;;;;;;8.57;4.25;;;26.80;99.90;;;;;;10247828;28;20402;-68
2022/08/19 10:47:34;;;;;;;7.65;4.70;;;26.80;99.90;;;;;;10254845;28;20128;-69
2022/08/19 10:52:36;;;;;;;5.65;4.40;;;26.60;99.90;;;;;;10252933;28;20050;-68
2022/08/19 10:57:40;;;;;;;5.68;3.95;;;26.80;99.90;;;;;;10254017;28;20069;-68
2022/08/19 11:03:01;;;;;;;7.47;4.75;;;27.00;99.90;;;;;;10255913;28;20453;-68
2022/08/19 11:08:03;;;;;;;8.82;4.45;;;27.00;99.90;;;;;;10259264;28;20054;-68
2022/08/19 11:13:24;;;;;;;5.20;4.63;;;27.40;99.90;;;;;;10239911;28;20055;-67
2022/08/19 11:18:26;;;;;;;4.80;3.90;;;27.70;99.80;;;;;;10259785;28;20044;-68
2022/08/19 11:23:28;;;;;;;6.32;4.50;;;27.80;98.90;;;;;;10255797;28;20066;-69
2022/08/19 11:28:29;;;;;;;7.50;4.45;;;27.30;99.30;;;;;;10252280;28;20786;-67
2022/08/19 11:33:32;;;;;;;5.38;4.25;;;27.50;98.60;;;;;;10255175;28;20055;-67
2022/08/19 11:38:35;;;;;;;5.63;4.38;;;27.70;97.90;;;;;;10255193;28;20043;-67
2022/08/19 11:43:37;;;;;;;5.75;4.80;;;28.00;97.90;;;;;;10247172;28;20051;-69
2022/08/19 11:48:39;;;;;;;6.03;4.13;;;27.70;97.30;;;;;;10255191;28;20059;-68
2022/08/19 11:53:41;;;;;;;11.93;4.80;;;28.00;97.20;;;;;;10235791;28;20688;-68
2022/08/19 11:58:43;;;;;;;7.35;4.18;;;27.90;96.50;;;;;;10242746;28;20051;-69
2022/08/19 12:03:48;;;;;;;4.38;3.30;;;28.50;96.70;;;;;;10251271;28;20102;-68
2022/08/19 12:08:50;;;;;;;6.05;3.80;;;29.10;94.40;;;;;;10249975;28;20058;-69
2022/08/19 12:13:53;;;;;;;4.15;3.75;;;29.40;93.90;;;;;;10283506;28;20046;-68
2022/08/19 12:18:56;;;;;;;6.53;4.35;;;29.50;91.90;;;;;;10290999;28;20057;-67
2022/08/19 12:23:59;;;;;;;5.25;4.22;;;29.30;92.40;;;;;;10290693;28;20057;-68
2022/08/19 12:29:01;;;;;;;4.78;4.30;;;29.60;92.10;;;;;;10276162;28;20081;-68
2022/08/19 12:34:03;;;;;;;4.68;4.28;;;29.50;90.90;;;;;;10284743;28;20054;-68
2022/08/19 12:39:06;;;;;;;6.30;4.28;;;29.80;91.30;;;;;;10289177;28;20057;-68
2022/08/19 12:44:12;;;;;;;3.67;3.38;;;29.60;90.90;;;;;;10292562;28;28845;-68
2022/08/19 12:49:15;;;;;;;6.47;4.10;;;29.50;90.40;;;;;;10290082;28;20065;-68
2022/08/19 12:54:37;;;;;;;7.05;3.40;;;29.70;90.70;;;;;;10288418;28;20054;-68
2022/08/19 12:59:39;;;;;;;3.10;2.80;;;30.10;90.00;;;;;;10292726;28;20062;-69
2022/08/19 13:04:41;;;;;;;4.07;2.92;;;30.20;86.70;;;;;;10287068;28;20034;-68
2022/08/19 13:09:42;;;;;;;3.38;2.58;;;30.60;85.90;;;;;;10282918;28;20055;-69
2022/08/19 13:14:50;;;;;;;5.85;2.60;;;31.00;85.30;;;;;;10239425;28;20047;-70
2022/08/19 13:19:52;;;;;;;3.15;2.60;;;30.70;83.00;;;;;;10244121;28;20446;-70
2022/08/19 13:24:54;;;;;;;2.65;2.45;;;30.30;83.70;;;;;;10258873;28;20225;-69
2022/08/19 13:35:17;;;;;;;3.03;2.13;;;29.30;85.70;;;;;;10262722;28;20049;-68
2022/08/19 13:40:23;;;;;;;3.78;2.17;;;29.10;86.30;;;;;;10254194;28;20122;-68
2022/08/19 13:45:27;;;;;;;2.63;1.85;;;29.50;85.40;;;;;;10258873;28;20828;-68
2022/08/19 13:50:31;;;;;;;1.88;1.73;;;29.80;85.00;;;;;;10259839;28;20051;-68
2022/08/19 13:55:33;;;;;;;2.95;1.25;;;30.50;82.50;;;;;;10250074;28;20486;-69
2022/08/19 14:00:38;;;;;;;2.15;0.90;;;30.20;80.50;;;;;;10264430;28;20097;-69
2022/08/19 14:05:39;;;;;;;;;;;30.30;80.60;;;;;;10253202;28;21067;-69
2022/08/19 14:10:43;;;;;;;1.20;1.10;;;31.10;79.10;;;;;;10251991;28;22791;-69
2022/08/19 14:15:47;;;;;;;3.55;1.63;;;31.90;77.00;;;;;;10233680;28;20054;-69
2022/08/19 14:20:48;;;;;;;2.28;1.00;;;31.70;76.90;;;;;;10245930;28;20113;-69
2022/08/19 14:25:50;;;;;;;1.50;1.40;;;31.40;77.30;;;;;;10255641;28;20629;-69
2022/08/19 14:30:52;;;;;;;2.78;1.30;;;30.80;78.10;;;;;;10248935;28;20047;-68
2022/08/19 14:35:57;;;;;;;1.27;1.17;;;30.00;78.50;;;;;;10260426;28;20051;-68
2022/08/19 14:41:07;;;;;;;4.53;1.20;;;30.00;78.70;;;;;;10252196;28;20046;-69
2022/08/19 14:46:10;;;;;;;1.77;1.30;;;30.40;76.60;;;;;;10227236;28;20101;-67
2022/08/19 14:51:12;;;;;;;1.15;0.93;;;30.30;76.30;;;;;;10254497;28;20054;-69
2022/08/19 14:56:16;;;;;;;4.97;1.15;;;30.50;76.60;;;;;;10264123;28;20598;-68
2022/08/19 15:01:20;;;;;;;1.10;1.00;;;30.70;75.80;;;;;;10253286;28;20104;-68
2022/08/19 15:06:23;;;;;;;1.05;0.80;;;31.00;75.30;;;;;;10260915;28;20199;-68
2022/08/19 15:11:27;;;;;;;1.80;0.82;;;31.20;75.00;;;;;;10263025;28;20057;-67
2022/08/19 15:16:29;;;;;;;2.67;1.10;;;31.30;74.40;;;;;;10257578;28;20062;-68
2022/08/19 15:21:31;;;;;;;1.85;1.05;;;31.30;74.40;;;;;;10246620;28;20042;-68
2022/08/19 15:26:32;;;;;;;1.90;1.00;;;31.70;72.80;;;;;;10256859;28;20053;-69
2022/08/19 15:31:35;;;;;;;2.38;1.13;;;31.10;72.60;;;;;;10261588;28;20039;-69
2022/08/19 15:36:39;;;;;;;1.27;0.80;;;30.80;73.40;;;;;;10256169;28;20061;-68
2022/08/19 15:41:42;;;;;;;1.60;1.00;;;30.60;73.50;;;;;;10253629;28;20540;-68
2022/08/19 15:46:47;;;;;;;3.17;0.90;;;30.40;74.10;;;;;;10243866;28;20059;-68
2022/08/19 15:51:52;;;;;;;2.47;1.08;;;30.40;73.70;;;;;;10248546;28;20059;-68
2022/08/19 16:07:37;;;;;;;3.35;1.15;;;30.40;73.30;;;;;;10252649;28;20050;-67
2022/08/19 16:12:40;;;;;;;1.27;1.02;;;30.50;72.70;;;;;;10244856;28;20059;-67
2022/08/19 16:17:42;;;;;;;1.23;1.00;;;30.60;73.30;;;;;;10246871;28;20055;-69
2022/08/19 16:22:57;;;;;;;1.90;1.23;;;30.80;72.20;;;;;;10257829;28;20042;-68
2022/08/19 16:27:59;;;;;;;3.10;1.15;;;30.30;72.70;;;;;;10249604;28;20043;-69
2022/08/19 16:33:09;;;;;;;3.45;1.20;;;30.20;73.00;;;;;;10253252;28;20541;-68
2022/08/19 16:38:11;;;;;;;2.22;1.13;;;30.40;73.70;;;;;;10255283;28;20058;-69
2022/08/19 16:43:13;;;;;;;2.92;1.15;;;30.50;73.90;;;;;;10251427;28;20498;-69
2022/08/19 16:48:14;;;;;;;3.03;1.63;;;30.20;72.90;;;;;;10240170;28;21271;-68
2022/08/19 16:53:19;;;;;;;2.40;1.55;;;30.40;72.70;;;;;;10239772;28;20058;-68
2022/08/19 16:58:24;;;;;;;1.50;1.30;;;30.30;73.10;;;;;;10258889;28;20047;-69
2022/08/19 17:03:29;;;;;;;2.70;1.65;;;30.30;72.80;;;;;;10256945;28;20113;-69
2022/08/19 17:08:37;;;;;;;2.95;1.63;;;30.00;72.90;;;;;;10220826;28;20054;-69
2022/08/19 17:13:39;;;;;;;2.30;1.40;;;30.00;72.80;;;;;;10259568;28;20074;-68
2022/08/19 17:18:44;;;;;;;2.70;1.80;;;29.90;72.80;;;;;;10250422;28;20438;-68
2022/08/19 17:23:45;;;;;;;1.85;1.55;;;29.40;73.30;;;;;;10257891;28;20549;-70
2022/08/19 17:28:50;;;;;;;3.65;1.65;;;29.60;72.90;;;;;;10254777;28;20058;-68
2022/08/19 17:33:52;;;;;;;1.70;1.40;;;29.40;73.10;;;;;;10263029;28;20055;-67
2022/08/19 17:38:57;;;;;;;2.40;1.88;;;29.30;73.10;;;;;;10254560;28;20046;-68
2022/08/19 17:44:00;;;;;;;1.70;1.42;;;29.00;73.50;;;;;;10263767;28;20362;-70
2022/08/19 17:49:02;;;;;;;2.97;2.28;;;28.80;74.90;;;;;;10259455;28;20050;-68
2022/08/19 17:54:05;;;;;;;3.17;1.75;;;28.70;75.60;;;;;;10252815;28;20066;-68
2022/08/19 17:59:07;;;;;;;2.55;2.35;;;28.30;75.80;;;;;;10251281;28;20457;-68
2022/08/19 18:04:15;;;;;;;2.67;2.33;;;28.30;76.30;;;;;;10235183;28;20113;-68
2022/08/19 18:09:17;;;;;;;4.28;2.35;;;28.20;76.60;;;;;;10259887;28;20080;-68
2022/08/19 18:14:27;;;;;;;3.85;2.70;;;28.00;77.30;;;;;;10301187;28;20046;-68
2022/08/19 18:19:40;;;;;;;4.28;3.00;;;27.90;77.80;;;;;;10302416;28;20050;-69
2022/08/19 18:24:44;;;;;;;2.83;1.90;;;27.70;78.20;;;;;;10295148;28;20073;-68
2022/08/19 18:29:46;;;;;;;3.35;2.22;;;27.50;78.70;;;;;;10298355;28;20063;-68
2022/08/19 18:34:48;;;;;;;6.68;2.83;;;27.30;79.20;;;;;;10297799;28;20061;-68
2022/08/19 18:50:31;;;;;;;3.15;2.33;;;26.90;80.60;;;;;;10297799;28;20100;-71
2022/08/19 18:55:33;;;;;;;3.92;2.60;;;26.70;81.10;;;;;;10296879;28;20477;-70
2022/08/19 19:00:35;;;;;;;2.30;2.03;;;26.60;81.50;;;;;;10290060;28;20058;-71
2022/08/19 19:05:38;;;;;;;6.38;2.60;;;26.40;81.70;;;;;;10267956;28;20054;-70
2022/08/19 19:10:41;;;;;;;4.20;2.10;;;26.30;82.00;;;;;;10289315;28;20082;-69
2022/08/19 19:15:42;;;;;;;2.95;2.22;;;26.10;82.40;;;;;;10250773;28;20113;-70
2022/08/19 19:20:44;;;;;;;3.80;2.50;;;26.00;82.60;;;;;;10255983;28;20058;-73
2022/08/19 19:25:46;;;;;;;3.55;2.22;;;25.80;83.30;;;;;;10252463;28;20062;-71
2022/08/19 19:30:53;;;;;;;3.42;2.80;;;25.80;83.70;;;;;;10259259;28;20496;-71
2022/08/19 19:35:55;;;;;;;2.83;2.63;;;25.60;84.10;;;;;;10239492;28;20053;-70
2022/08/19 19:40:56;;;;;;;3.58;2.60;;;25.50;84.60;;;;;;10260130;28;20054;-70
2022/08/19 19:45:58;;;;;;;3.88;2.60;;;25.30;85.40;;;;;;10254730;28;20116;-70
2022/08/19 19:51:01;;;;;;;6.40;2.50;;;25.20;85.90;;;;;;10240620;28;20441;-69
2022/08/19 19:56:04;;;;;;;4.10;3.03;;;25.10;86.40;;;;;;10250634;28;20043;-70
2022/08/19 20:01:11;;;;;;;6.38;3.15;;;25.10;86.90;;;;;;10259660;28;20050;-69
2022/08/19 20:06:15;;;;;;;4.57;2.30;;;24.90;87.50;;;;;;10261385;28;20047;-70
2022/08/19 20:11:31;;;;;;;3.83;2.75;;;24.80;87.80;;;;;;10248094;28;20054;-69
2022/08/19 20:16:33;;;;;;;7.60;2.90;;;24.70;88.50;;;;;;10247307;28;20543;-69
2022/08/19 20:21:42;;;;;;;4.47;2.35;;;24.70;88.80;;;;;;10253390;28;20038;-69
2022/08/19 20:26:46;;;;;;;4.18;2.75;;;24.70;89.20;;;;;;10253058;28;20098;-69
2022/08/19 20:31:52;;;;;;;4.05;2.60;;;24.70;89.60;;;;;;10251264;28;20055;-69
2022/08/19 20:37:00;;;;;;;3.67;2.40;;;24.50;89.90;;;;;;10251922;28;20140;-70
2022/08/19 20:42:01;;;;;;;4.13;2.22;;;24.50;90.00;;;;;;10255791;28;20082;-70
2022/08/19 20:47:03;;;;;;;7.65;2.55;;;24.50;90.20;;;;;;10245405;28;20062;-70
2022/08/19 20:52:05;;;;;;;5.25;1.92;;;24.40;90.30;;;;;;10247673;28;20057;-70
2022/08/19 20:57:07;;;;;;;2.92;2.25;;;24.40;90.30;;;;;;10229645;28;20082;-70
2022/08/19 21:02:09;;;;;;;3.67;1.83;;;24.30;90.50;;;;;;10242913;28;20122;-69
2022/08/19 21:07:11;;;;;;;3.97;1.65;;;24.20;90.60;;;;;;10247551;28;20059;-69
2022/08/19 21:12:13;;;;;;;4.53;2.17;;;24.20;90.90;;;;;;10245304;28;20633;-69
2022/08/19 21:17:15;;;;;;;2.35;1.90;;;24.10;91.20;;;;;;10252666;28;20826;-71
2022/08/19 21:22:17;;;;;;;2.47;1.70;;;24.00;91.50;;;;;;10247322;28;20046;-69
2022/08/19 21:27:18;;;;;;;8.75;1.70;;;24.00;91.80;;;;;;10249825;28;20118;-70
2022/08/19 21:32:22;;;;;;;2.22;1.48;;;23.80;92.10;;;;;;10245682;28;20403;-69
2022/08/19 21:37:24;;;;;;;2.88;1.85;;;23.80;92.40;;;;;;10244375;28;20061;-69
2022/08/19 21:42:26;;;;;;;2.40;1.45;;;23.70;92.80;;;;;;10249703;28;20055;-69
2022/08/19 21:47:28;;;;;;;2.40;1.20;;;23.60;93.20;;;;;;10256652;28;20043;-70
2022/08/19 21:52:30;;;;;;;2.80;1.58;;;23.50;93.60;;;;;;10257116;28;20201;-69
2022/08/19 21:57:31;;;;;;;1.48;1.25;;;23.40;94.00;;;;;;10249725;28;20442;-69
2022/08/19 22:02:33;;;;;;;3.47;1.20;;;23.40;94.40;;;;;;10254899;28;20051;-70
2022/08/19 22:07:35;;;;;;;2.88;1.20;;;23.30;94.90;;;;;;10256575;28;20047;-69
2022/08/19 22:12:41;;;;;;;5.28;1.27;;;23.20;95.30;;;;;;10260669;28;20077;-69
2022/08/19 22:17:53;;;;;;;4.18;1.30;;;23.20;95.60;;;;;;10257533;28;20051;-69
2022/08/19 22:22:58;;;;;;;2.22;0.90;;;23.10;96.00;;;;;;10258044;28;20398;-69
2022/08/19 22:28:02;;;;;;;3.00;1.17;;;23.10;96.40;;;;;;10233657;28;20051;-69
2022/08/19 22:33:07;;;;;;;2.42;1.20;;;23.10;96.80;;;;;;10252444;28;20055;-69
2022/08/19 22:38:10;;;;;;;5.93;1.10;;;23.00;97.00;;;;;;10248179;28;20044;-69
2022/08/19 22:43:16;;;;;;;2.75;1.05;;;23.00;97.80;;;;;;10247659;28;22696;-70
2022/08/19 22:48:22;;;;;;;1.67;1.30;;;22.90;98.30;;;;;;10256289;28;20143;-69
2022/08/19 22:53:25;;;;;;;4.63;1.33;;;22.90;98.50;;;;;;10245445;28;20105;-69
2022/08/19 22:58:28;;;;;;;2.35;0.82;;;22.90;99.10;;;;;;10249734;28;20055;-69
2022/08/19 23:03:30;;;;;;;3.00;1.00;;;22.80;99.50;;;;;;10247680;28;20051;-70
2022/08/19 23:08:31;;;;;;;1.50;0.68;;;22.80;99.90;;;;;;10257617;28;20051;-70
2022/08/19 23:13:33;;;;;;;1.98;0.90;;;22.70;99.90;;;;;;10251865;28;20055;-69
2022/08/19 23:18:35;;;;;;;4.10;1.00;;;22.70;99.90;;;;;;10253263;28;20055;-69
2022/08/19 23:23:38;;;;;;;5.15;1.00;;;22.70;99.90;;;;;;10251869;28;20058;-69
2022/08/19 23:34:00;;;;;;;2.13;1.10;;;22.50;99.90;;;;;;10247406;28;20101;-69
2022/08/19 23:39:02;;;;;;;3.67;0.80;;;22.40;99.90;;;;;;10250106;28;20081;-69
2022/08/19 23:44:05;;;;;;;2.88;0.90;;;22.40;99.90;;;;;;10250023;28;20054;-70
2022/08/19 23:49:15;;;;;;;4.32;0.80;;;22.30;99.90;;;;;;10251581;28;20550;-69
2022/08/19 23:54:17;;;;;;;1.27;0.80;;;22.30;99.90;;;;;;10247920;28;20109;-69
2022/08/19 23:59:18;;;;;;;1.88;1.23;;;22.20;99.90;;;;;;10249461;28;20055;-69
